Terminal Aerodrome Forecast
Issued by NWS Sioux Falls, SD

Home | Current Version | Previous Version | Text Only | Print | Product List | Glossary On
Versions: 1 2 3 4 5 6 7 8 9 10 11 12 13 14 15 16 17 18 19 20 21 22 23 24 25 26 27 28 29 30 31 32 33 34 35 36 37 38 39
000
FTUS43 KFSD 251400 AAA
TAFSUX
TAF AMD
KSUX 251400Z 2514/2612 19006KT 2SM BR OVC004
     FM251500 19006KT 3SM BR OVC008
     FM251700 18008KT P6SM OVC025
      TEMPO 2522/2601 6SM TSRA BKN030CB
     FM260300 36005KT P6SM SCT035 BKN080=

USA.gov is the U.S. government's official web portal to all federal, state and local government web resources and services.